Time;durP1;ratioP1;P1;durP2;ratioP2;P2;SDS_P1;SDS_P2;PMS_P1;PMS_P2;Temp;Humidity;BMP_temperature;BMP_pressure;BME280_temperature;BME280_humidity;BME280_pressure;Samples;Min_cycle;Max_cycle;Signal;HPM_P1;HPM_P2
2022/03/26 00:03:52;;;;;;;31.17;19.57;;;9.20;99.90;;;;;;10030920;29;20214;-83
2022/03/26 00:09:13;;;;;;;35.50;20.07;;;9.20;99.90;;;;;;10059039;29;20517;-82
2022/03/26 00:14:35;;;;;;;32.10;19.40;;;9.20;99.90;;;;;;10044609;29;20206;-82
2022/03/26 00:19:58;;;;;;;33.50;18.70;;;9.20;99.90;;;;;;10085584;29;20246;-76
2022/03/26 00:25:20;;;;;;;31.00;19.23;;;9.20;99.90;;;;;;10102230;29;20218;-76
2022/03/26 00:30:42;;;;;;;35.17;18.47;;;9.20;99.90;;;;;;10043876;29;20210;-76
2022/03/26 00:36:04;;;;;;;34.33;18.77;;;9.30;99.90;;;;;;10080627;29;20445;-77
2022/03/26 00:41:25;;;;;;;29.27;18.20;;;9.20;99.90;;;;;;10080538;29;20239;-82
2022/03/26 00:46:47;;;;;;;32.13;18.70;;;9.10;99.90;;;;;;10080547;29;20223;-81
2022/03/26 00:52:09;;;;;;;32.07;19.50;;;9.10;99.90;;;;;;10081091;29;20209;-80
2022/03/26 00:57:31;;;;;;;32.30;20.53;;;9.10;99.90;;;;;;10065466;29;20617;-81
2022/03/26 01:02:54;;;;;;;32.80;18.83;;;9.00;99.90;;;;;;10041982;29;20202;-77
2022/03/26 01:08:15;;;;;;;36.37;18.63;;;9.00;99.90;;;;;;10057498;29;20227;-76
2022/03/26 01:13:40;;;;;;;34.17;20.87;;;9.00;99.90;;;;;;10080606;29;20284;-78
2022/03/26 01:19:05;;;;;;;33.67;19.50;;;9.00;99.90;;;;;;10092416;29;20264;-78
2022/03/26 01:24:35;;;;;;;34.50;19.00;;;9.10;99.90;;;;;;10107042;29;20212;-78
2022/03/26 01:29:58;;;;;;;31.70;19.20;;;9.00;99.90;;;;;;10077909;29;20296;-77
2022/03/26 01:35:19;;;;;;;31.70;19.33;;;9.00;99.90;;;;;;10079309;29;20236;-76
2022/03/26 01:40:42;;;;;;;36.73;20.10;;;8.90;99.90;;;;;;10078882;29;20215;-77
2022/03/26 01:46:04;;;;;;;31.60;18.97;;;8.80;99.90;;;;;;10079685;29;20249;-77
2022/03/26 01:51:26;;;;;;;32.23;18.97;;;8.80;99.90;;;;;;10079498;29;20208;-78
2022/03/26 01:56:49;;;;;;;28.57;17.77;;;8.70;99.90;;;;;;10062785;29;20274;-77
2022/03/26 02:02:10;;;;;;;32.60;18.10;;;8.70;99.90;;;;;;10079371;29;20396;-77
2022/03/26 02:07:32;;;;;;;30.70;18.43;;;8.60;99.90;;;;;;10079103;29;20259;-76
2022/03/26 02:12:54;;;;;;;34.47;19.20;;;8.50;99.90;;;;;;10086603;29;20212;-76
2022/03/26 02:18:16;;;;;;;29.33;18.20;;;8.50;99.90;;;;;;10079069;29;20264;-76
2022/03/26 02:23:38;;;;;;;37.77;17.93;;;8.50;99.90;;;;;;10119130;29;20215;-77
2022/03/26 02:29:12;;;;;;;26.90;17.07;;;8.40;99.90;;;;;;10068701;29;20296;-80
2022/03/26 02:34:34;;;;;;;27.17;17.57;;;8.40;99.90;;;;;;10085425;29;20470;-76
2022/03/26 02:40:10;;;;;;;27.17;15.23;;;8.30;99.90;;;;;;10072192;29;20248;-76
2022/03/26 02:45:32;;;;;;;28.30;16.17;;;8.30;99.90;;;;;;10044087;29;20244;-76
2022/03/26 02:50:55;;;;;;;26.17;16.63;;;8.30;99.90;;;;;;10047330;29;20209;-77
2022/03/26 02:56:19;;;;;;;25.27;15.63;;;8.30;99.90;;;;;;10054452;29;20236;-77
2022/03/26 03:01:41;;;;;;;24.07;14.10;;;8.30;99.90;;;;;;10085097;29;20499;-78
2022/03/26 03:07:03;;;;;;;20.87;12.57;;;8.30;99.90;;;;;;10084997;29;20220;-77
2022/03/26 03:12:26;;;;;;;19.93;12.83;;;8.40;99.90;;;;;;10084865;29;20205;-77
2022/03/26 03:17:49;;;;;;;21.60;13.03;;;8.50;99.90;;;;;;10069296;29;20264;-76
2022/03/26 03:23:12;;;;;;;22.77;12.97;;;8.50;99.90;;;;;;10085092;29;20288;-78
2022/03/26 03:28:34;;;;;;;19.53;12.00;;;8.60;99.90;;;;;;10098263;29;20565;-76
2022/03/26 03:33:56;;;;;;;23.70;13.00;;;8.60;99.90;;;;;;10101158;29;20216;-80
2022/03/26 03:39:18;;;;;;;26.23;12.73;;;8.60;99.90;;;;;;10067679;29;20298;-78
2022/03/26 03:44:40;;;;;;;24.77;12.80;;;8.60;99.90;;;;;;10069908;29;20210;-76
2022/03/26 03:50:02;;;;;;;30.87;13.87;;;8.70;99.90;;;;;;10083634;29;20399;-79
2022/03/26 03:55:25;;;;;;;25.77;14.47;;;8.60;99.90;;;;;;10083203;29;20211;-78
2022/03/26 04:00:47;;;;;;;25.37;14.20;;;8.60;99.90;;;;;;10044801;29;20241;-78
2022/03/26 04:06:09;;;;;;;22.50;13.47;;;8.60;99.90;;;;;;10044614;29;20284;-78
2022/03/26 04:11:31;;;;;;;23.87;14.43;;;8.60;99.90;;;;;;10044372;29;20219;-78
2022/03/26 04:16:53;;;;;;;23.50;13.57;;;8.60;99.90;;;;;;10044213;29;20251;-76
2022/03/26 04:22:15;;;;;;;24.60;14.80;;;8.60;99.90;;;;;;10096296;29;20199;-77
2022/03/26 04:27:43;;;;;;;24.93;14.30;;;8.60;99.90;;;;;;10063057;29;20221;-78
2022/03/26 04:33:05;;;;;;;24.73;14.97;;;8.60;99.90;;;;;;10081477;29;20212;-76
2022/03/26 04:38:28;;;;;;;23.57;14.40;;;8.60;99.90;;;;;;10065100;29;20253;-79
2022/03/26 04:43:50;;;;;;;27.87;15.77;;;8.60;99.90;;;;;;10080474;29;20204;-78
2022/03/26 04:49:12;;;;;;;26.03;13.97;;;8.60;99.90;;;;;;10081425;29;20238;-78
2022/03/26 04:54:34;;;;;;;24.87;15.20;;;8.60;99.90;;;;;;10066128;29;20227;-77
2022/03/26 04:59:56;;;;;;;21.83;13.90;;;8.60;99.90;;;;;;10079860;29;20469;-77
2022/03/26 05:05:25;;;;;;;21.80;13.53;;;8.60;99.90;;;;;;10080846;29;20217;-77
2022/03/26 05:10:47;;;;;;;28.67;15.47;;;8.60;99.90;;;;;;10079609;29;20222;-76
2022/03/26 05:16:09;;;;;;;24.90;15.57;;;8.60;99.90;;;;;;10068795;29;20212;-76
2022/03/26 05:21:31;;;;;;;26.00;15.30;;;8.60;99.90;;;;;;10111205;29;20215;-78
2022/03/26 05:26:53;;;;;;;25.63;14.63;;;8.60;99.90;;;;;;10080359;29;20223;-75
2022/03/26 05:32:16;;;;;;;25.53;15.53;;;8.50;99.90;;;;;;10082706;29;20441;-81
2022/03/26 05:37:38;;;;;;;23.23;16.17;;;8.50;99.90;;;;;;10041979;29;20604;-78
2022/03/26 05:43:00;;;;;;;25.67;15.43;;;8.50;99.90;;;;;;10040403;29;20282;-78
2022/03/26 05:48:22;;;;;;;21.40;14.07;;;8.50;99.90;;;;;;10019909;29;20214;-77
2022/03/26 05:53:44;;;;;;;23.77;16.07;;;8.50;99.90;;;;;;10040931;29;20213;-77
2022/03/26 05:59:09;;;;;;;24.93;15.53;;;8.50;99.90;;;;;;10041464;29;20260;-77
2022/03/26 06:04:31;;;;;;;24.23;16.03;;;8.50;99.90;;;;;;10041397;29;20279;-76
2022/03/26 06:09:53;;;;;;;30.90;17.57;;;8.40;99.90;;;;;;10068680;29;20286;-78
2022/03/26 06:15:16;;;;;;;25.77;15.03;;;8.40;99.90;;;;;;10068241;29;20208;-76
2022/03/26 06:20:51;;;;;;;27.50;16.57;;;8.40;99.90;;;;;;10090726;29;20577;-78
2022/03/26 06:26:13;;;;;;;27.17;16.53;;;8.40;99.90;;;;;;10071451;29;20218;-77
2022/03/26 06:31:35;;;;;;;29.13;16.80;;;8.30;99.90;;;;;;10079026;29;20220;-76
2022/03/26 06:36:57;;;;;;;35.23;17.67;;;8.30;99.90;;;;;;10078648;29;20551;-77
2022/03/26 06:42:19;;;;;;;31.33;17.47;;;8.30;99.90;;;;;;10078745;29;20237;-76
2022/03/26 06:47:42;;;;;;;28.63;20.10;;;8.30;99.90;;;;;;10078635;29;20212;-77
2022/03/26 06:53:04;;;;;;;39.23;25.73;;;8.30;99.90;;;;;;10077046;29;20216;-77
2022/03/26 06:58:27;;;;;;;44.87;26.33;;;8.20;99.90;;;;;;10081755;29;20470;-76
2022/03/26 07:03:49;;;;;;;34.23;21.27;;;8.20;99.90;;;;;;10046856;29;20206;-81
2022/03/26 07:09:10;;;;;;;38.13;22.20;;;8.30;99.90;;;;;;10055207;29;20575;-77
2022/03/26 07:14:32;;;;;;;35.83;19.27;;;8.40;99.90;;;;;;10084819;29;20208;-76
2022/03/26 07:19:54;;;;;;;36.13;19.73;;;8.40;99.90;;;;;;10089330;29;20306;-78
2022/03/26 07:25:17;;;;;;;35.90;20.03;;;8.40;99.90;;;;;;10065173;29;20596;-76
2022/03/26 07:30:38;;;;;;;29.23;17.07;;;8.40;99.90;;;;;;10031278;29;20449;-77
2022/03/26 07:36:00;;;;;;;27.40;17.00;;;8.50;99.90;;;;;;10044251;29;20236;-76
2022/03/26 07:41:22;;;;;;;32.03;19.27;;;8.50;99.90;;;;;;10045566;29;20232;-78
2022/03/26 07:46:44;;;;;;;29.83;18.57;;;8.60;99.90;;;;;;10045588;29;20209;-81
2022/03/26 07:52:07;;;;;;;31.40;19.03;;;8.70;99.90;;;;;;10045499;29;20527;-77
2022/03/26 07:57:28;;;;;;;34.00;19.97;;;8.70;99.90;;;;;;10045145;29;20244;-79
2022/03/26 08:02:50;;;;;;;31.43;19.47;;;8.70;99.90;;;;;;10045470;29;20222;-79
2022/03/26 08:08:13;;;;;;;35.20;18.97;;;8.70;99.90;;;;;;10059737;29;20224;-80
2022/03/26 08:13:35;;;;;;;34.17;19.40;;;8.80;99.90;;;;;;10069919;29;20237;-77
2022/03/26 08:18:57;;;;;;;29.90;16.63;;;8.80;99.90;;;;;;10107087;29;20251;-77
2022/03/26 08:24:19;;;;;;;25.03;17.10;;;8.80;99.90;;;;;;10081946;29;20214;-77
2022/03/26 08:29:41;;;;;;;26.73;16.87;;;8.80;99.90;;;;;;10066343;29;20236;-77
2022/03/26 08:35:04;;;;;;;29.63;18.13;;;8.80;99.90;;;;;;10082278;29;20244;-77
2022/03/26 08:40:29;;;;;;;35.77;19.13;;;8.90;99.90;;;;;;10065365;29;20248;-78
2022/03/26 08:45:51;;;;;;;30.57;17.30;;;9.00;99.90;;;;;;10081526;29;20201;-81
2022/03/26 08:51:13;;;;;;;26.43;15.93;;;9.00;99.90;;;;;;10082114;29;20276;-82
2022/03/26 08:56:35;;;;;;;30.77;17.87;;;9.10;99.90;;;;;;10082557;29;20515;-81
2022/03/26 09:01:57;;;;;;;35.27;17.27;;;9.10;99.90;;;;;;10064866;29;20493;-76
2022/03/26 09:07:19;;;;;;;23.67;14.67;;;9.10;99.90;;;;;;10064030;29;20263;-79
2022/03/26 09:12:41;;;;;;;26.93;15.63;;;9.20;99.90;;;;;;10064643;29;20242;-79
2022/03/26 09:18:04;;;;;;;33.90;17.27;;;9.10;99.90;;;;;;10067429;29;20318;-78
2022/03/26 09:23:25;;;;;;;34.23;16.13;;;9.30;99.90;;;;;;10081675;29;20538;-78
2022/03/26 09:28:47;;;;;;;23.47;12.20;;;9.40;99.90;;;;;;10036390;29;20403;-76
2022/03/26 09:34:09;;;;;;;28.17;14.23;;;9.50;99.90;;;;;;10049262;29;20380;-78
2022/03/26 09:39:31;;;;;;;23.23;13.13;;;9.60;99.90;;;;;;10066079;29;20494;-77
2022/03/26 09:44:56;;;;;;;24.67;13.00;;;9.70;99.90;;;;;;10079879;29;20281;-78
2022/03/26 09:50:19;;;;;;;20.23;11.93;;;9.80;99.90;;;;;;10064097;29;20276;-82
2022/03/26 09:55:43;;;;;;;24.57;12.70;;;9.80;99.90;;;;;;10065585;29;20214;-77
2022/03/26 10:01:05;;;;;;;24.30;12.47;;;9.90;99.90;;;;;;10080071;29;20453;-79
2022/03/26 10:06:27;;;;;;;27.20;13.13;;;9.90;99.90;;;;;;10062826;29;20213;-78
2022/03/26 10:11:57;;;;;;;14.37;7.80;;;9.90;99.90;;;;;;10079486;29;20402;-78
2022/03/26 10:17:34;;;;;;;16.83;8.73;;;10.00;99.90;;;;;;10079278;29;20220;-76
2022/03/26 10:22:56;;;;;;;12.87;6.33;;;10.20;99.90;;;;;;10062019;29;20214;-76
2022/03/26 10:28:24;;;;;;;7.37;4.83;;;10.80;99.90;;;;;;10040280;29;20207;-79
2022/03/26 10:33:47;;;;;;;14.83;6.10;;;10.80;99.90;;;;;;10051615;29;20242;-79
2022/03/26 10:39:27;;;;;;;14.40;6.13;;;10.70;99.90;;;;;;10086007;29;20248;-77
2022/03/26 10:44:49;;;;;;;13.73;7.00;;;10.90;99.90;;;;;;10085347;29;20281;-77
2022/03/26 10:50:14;;;;;;;11.30;4.93;;;10.70;99.90;;;;;;10071814;29;20225;-76
2022/03/26 10:55:43;;;;;;;7.03;4.40;;;10.60;99.90;;;;;;10068628;29;20209;-77
2022/03/26 11:01:05;;;;;;;16.83;9.90;;;10.60;99.90;;;;;;10085137;29;20255;-77
2022/03/26 11:06:28;;;;;;;8.77;4.45;;;11.30;99.90;;;;;;10083838;29;20211;-78
2022/03/26 11:11:51;;;;;;;9.73;3.60;;;12.60;99.90;;;;;;10071256;29;20227;-79
2022/03/26 11:17:25;;;;;;;5.88;2.65;;;14.00;98.70;;;;;;10084365;29;20212;-77
2022/03/26 11:23:21;;;;;;;6.63;3.28;;;15.70;90.00;;;;;;10053773;29;20246;-77
2022/03/26 11:28:47;;;;;;;16.20;5.30;;;16.40;65.80;;;;;;10084260;29;20214;-76
2022/03/26 11:34:09;;;;;;;8.18;3.72;;;15.30;63.60;;;;;;10083851;29;20216;-78
2022/03/26 11:39:46;;;;;;;10.05;2.80;;;14.20;76.90;;;;;;10083967;29;20246;-77
2022/03/26 11:51:21;;;;;;;16.23;4.25;;;16.80;50.70;;;;;;10084000;29;20209;-82
2022/03/26 11:56:43;;;;;;;5.75;2.75;;;18.60;38.10;;;;;;10069265;29;20508;-78
2022/03/26 12:02:22;;;;;;;4.35;2.38;;;19.30;29.90;;;;;;10082231;29;20214;-79
2022/03/26 12:07:44;;;;;;;6.85;2.53;;;19.50;27.30;;;;;;10082679;29;20223;-78
2022/03/26 12:13:08;;;;;;;8.70;2.90;;;18.30;26.60;;;;;;10082712;29;20220;-80
2022/03/26 12:18:39;;;;;;;6.25;2.63;;;16.70;29.00;;;;;;10089785;29;20276;-77
2022/03/26 12:24:16;;;;;;;4.68;3.05;;;17.00;28.60;;;;;;10092223;29;20212;-79
2022/03/26 12:29:39;;;;;;;5.55;2.70;;;16.50;29.70;;;;;;10081168;29;20217;-78
2022/03/26 12:35:06;;;;;;;3.42;2.10;;;17.60;28.80;;;;;;10081435;29;20238;-79
2022/03/26 12:40:29;;;;;;;7.00;2.80;;;18.40;25.90;;;;;;10068301;29;20234;-77
2022/03/26 12:45:52;;;;;;;4.97;2.80;;;18.90;23.20;;;;;;10080521;29;20472;-79
2022/03/26 12:51:15;;;;;;;7.72;1.85;;;18.80;22.00;;;;;;10075688;29;20217;-77
2022/03/26 12:56:37;;;;;;;6.25;3.10;;;18.60;21.10;;;;;;10042060;29;20230;-78
2022/03/26 13:02:00;;;;;;;5.32;2.03;;;18.40;20.40;;;;;;10042926;29;20540;-79
2022/03/26 13:07:22;;;;;;;4.88;2.65;;;18.50;19.20;;;;;;10035178;29;20511;-81
2022/03/26 13:12:48;;;;;;;8.73;2.13;;;18.60;18.30;;;;;;10082284;29;20284;-80
2022/03/26 13:18:10;;;;;;;4.75;1.90;;;18.00;17.80;;;;;;10083311;29;20262;-77
2022/03/26 13:23:32;;;;;;;8.30;1.95;;;17.70;17.40;;;;;;10071945;29;20217;-77
2022/03/26 13:28:55;;;;;;;4.65;1.77;;;17.70;17.60;;;;;;10066521;29;20228;-78
2022/03/26 13:34:22;;;;;;;9.48;2.75;;;17.70;17.80;;;;;;10079740;29;20442;-78
2022/03/26 13:39:47;;;;;;;4.68;2.10;;;17.20;19.80;;;;;;10079480;29;20236;-79
2022/03/26 13:45:09;;;;;;;10.27;2.85;;;16.70;21.40;;;;;;10063386;29;20515;-77
2022/03/26 13:50:31;;;;;;;4.95;2.03;;;16.60;22.00;;;;;;10048707;29;20267;-78
2022/03/26 13:55:58;;;;;;;5.30;2.10;;;15.90;23.00;;;;;;10041865;29;20258;-78
2022/03/26 14:01:21;;;;;;;2.85;1.50;;;15.50;24.00;;;;;;10040590;29;20253;-77
2022/03/26 14:06:42;;;;;;;3.92;1.80;;;15.40;23.40;;;;;;10049500;29;20217;-79
2022/03/26 14:12:04;;;;;;;5.53;1.75;;;15.00;22.10;;;;;;10070423;29;20218;-79
2022/03/26 14:17:27;;;;;;;9.02;3.65;;;14.30;21.30;;;;;;10086928;29;20562;-78
2022/03/26 14:22:49;;;;;;;7.50;2.75;;;13.80;22.00;;;;;;10052830;29;20227;-79
2022/03/26 14:28:13;;;;;;;3.95;2.40;;;13.60;21.90;;;;;;10070048;29;20228;-78
2022/03/26 14:33:36;;;;;;;3.95;1.90;;;12.90;22.20;;;;;;10086081;29;20513;-78
2022/03/26 14:38:58;;;;;;;4.77;2.60;;;12.50;22.40;;;;;;10085902;29;20567;-76
2022/03/26 14:44:20;;;;;;;6.83;1.47;;;12.10;22.90;;;;;;10085193;29;20209;-79
2022/03/26 14:49:42;;;;;;;3.80;1.60;;;11.90;23.60;;;;;;10086049;29;20221;-78
2022/03/26 14:55:05;;;;;;;6.88;2.72;;;11.70;23.70;;;;;;10085545;29;20213;-78
2022/03/26 15:00:27;;;;;;;7.70;3.00;;;11.50;23.80;;;;;;10085648;29;20282;-82
2022/03/26 15:05:48;;;;;;;2.97;1.60;;;11.60;24.10;;;;;;10069347;29;20222;-77
2022/03/26 15:11:10;;;;;;;5.10;1.87;;;11.50;23.60;;;;;;10083779;29;20225;-81
2022/03/26 15:16:33;;;;;;;6.67;2.10;;;11.30;23.80;;;;;;10030323;29;20237;-78
2022/03/26 15:21:56;;;;;;;8.23;1.83;;;11.00;24.20;;;;;;10114056;29;20308;-77
2022/03/26 15:27:18;;;;;;;2.60;1.50;;;11.00;24.40;;;;;;10088657;29;20215;-78
2022/03/26 15:32:40;;;;;;;6.13;1.80;;;11.00;24.20;;;;;;10083116;29;20271;-78
2022/03/26 15:38:02;;;;;;;4.03;2.03;;;10.80;24.30;;;;;;10082936;29;20234;-80
2022/03/26 15:43:24;;;;;;;3.70;2.07;;;10.70;24.70;;;;;;10083599;29;20600;-77
2022/03/26 15:48:46;;;;;;;3.87;1.73;;;10.60;24.20;;;;;;10084500;29;20675;-78
2022/03/26 15:54:08;;;;;;;4.33;2.40;;;10.40;24.20;;;;;;10067783;29;20298;-78
2022/03/26 15:59:30;;;;;;;9.50;2.93;;;10.20;24.30;;;;;;10082664;29;20300;-78
2022/03/26 16:04:57;;;;;;;6.60;2.67;;;10.10;23.70;;;;;;10066448;29;20208;-80
2022/03/26 16:10:19;;;;;;;6.57;2.43;;;9.90;23.50;;;;;;10083152;29;20221;-80
2022/03/26 16:15:44;;;;;;;6.60;3.00;;;9.60;22.90;;;;;;10033304;29;20214;-78
2022/03/26 16:21:06;;;;;;;2.67;1.40;;;9.50;22.70;;;;;;10099576;29;20239;-78
2022/03/26 16:26:29;;;;;;;4.70;2.00;;;9.20;22.10;;;;;;10094013;29;20221;-77
2022/03/26 16:31:51;;;;;;;16.70;4.13;;;9.10;22.50;;;;;;10052531;29;20297;-77
2022/03/26 16:37:13;;;;;;;8.63;4.97;;;9.00;23.10;;;;;;10081297;29;20249;-77
2022/03/26 16:42:35;;;;;;;10.33;5.10;;;8.90;23.80;;;;;;10069401;29;20243;-78
2022/03/26 16:47:58;;;;;;;8.17;3.80;;;8.80;24.40;;;;;;10027026;29;20283;-77
2022/03/26 16:53:21;;;;;;;15.10;6.60;;;8.70;24.60;;;;;;10043500;29;20221;-76
2022/03/26 16:58:44;;;;;;;11.67;4.20;;;8.60;25.10;;;;;;10043233;29;20252;-78
2022/03/26 17:04:07;;;;;;;13.83;6.03;;;8.50;25.40;;;;;;10042767;29;20261;-77
2022/03/26 17:09:29;;;;;;;15.07;3.37;;;8.50;25.90;;;;;;10051073;29;20515;-77
2022/03/26 17:14:51;;;;;;;9.40;4.47;;;8.30;26.20;;;;;;10036347;29;20232;-79
2022/03/26 17:20:14;;;;;;;13.27;5.67;;;8.20;26.80;;;;;;10082937;29;20574;-76
2022/03/26 17:25:36;;;;;;;10.70;5.87;;;;;;;;;;10098134;29;20218;-81
2022/03/26 17:30:58;;;;;;;22.97;7.50;;;7.80;27.70;;;;;;10080163;29;20309;-78
2022/03/26 17:36:21;;;;;;;10.47;4.77;;;7.70;28.80;;;;;;10071115;29;20289;-76
2022/03/26 17:41:43;;;;;;;17.20;8.57;;;7.60;29.40;;;;;;10055204;29;20242;-76
2022/03/26 17:47:07;;;;;;;12.33;5.40;;;7.50;30.40;;;;;;10041517;29;20280;-76
2022/03/26 17:52:30;;;;;;;13.87;7.10;;;7.50;31.10;;;;;;10041818;29;20213;-77
2022/03/26 17:57:52;;;;;;;17.33;8.50;;;7.40;31.90;;;;;;10040685;29;20212;-76
2022/03/26 18:03:14;;;;;;;32.93;16.67;;;7.30;33.20;;;;;;10027920;29;20216;-78
2022/03/26 18:08:36;;;;;;;67.90;32.77;;;7.20;34.70;;;;;;10064956;29;20534;-77
2022/03/26 18:13:59;;;;;;;97.73;44.87;;;7.20;35.90;;;;;;10039177;29;20296;-78
2022/03/26 18:19:21;;;;;;;91.73;45.17;;;7.20;38.70;;;;;;10024786;29;20256;-76
2022/03/26 18:24:43;;;;;;;78.17;36.70;;;7.10;40.30;;;;;;10038073;29;20224;-80
2022/03/26 18:30:06;;;;;;;46.70;26.37;;;7.10;41.70;;;;;;10079015;29;20208;-78
2022/03/26 18:35:28;;;;;;;34.70;20.00;;;7.00;42.90;;;;;;10081239;29;20590;-77
2022/03/26 18:40:50;;;;;;;47.70;24.03;;;7.00;45.20;;;;;;10079505;29;20233;-75
2022/03/26 18:46:11;;;;;;;51.23;26.37;;;6.90;46.60;;;;;;10062481;29;20222;-76
2022/03/26 18:51:33;;;;;;;44.13;23.87;;;6.80;46.30;;;;;;10064014;29;20215;-75
2022/03/26 18:56:55;;;;;;;56.30;30.30;;;6.70;47.70;;;;;;10085979;29;20366;-77
2022/03/26 19:02:19;;;;;;;72.97;40.17;;;6.60;49.70;;;;;;10085384;29;20310;-76
2022/03/26 19:07:42;;;;;;;62.60;31.73;;;6.60;50.20;;;;;;10068189;29;20562;-77
2022/03/26 19:13:05;;;;;;;43.50;23.13;;;6.50;51.00;;;;;;10084872;29;20231;-77
2022/03/26 19:18:26;;;;;;;40.93;18.83;;;6.40;52.00;;;;;;10092122;29;20228;-79
2022/03/26 19:23:48;;;;;;;55.23;22.57;;;6.20;55.00;;;;;;10109460;29;20301;-78
2022/03/26 19:34:52;;;;;;;104.80;37.17;;;6.20;53.50;;;;;;10088835;29;20246;-76
2022/03/26 19:40:14;;;;;;;140.73;46.13;;;6.20;54.60;;;;;;10083944;29;20290;-75
2022/03/26 19:45:36;;;;;;;174.43;58.73;;;6.20;56.30;;;;;;10045761;29;20213;-77
2022/03/26 19:50:58;;;;;;;206.87;71.10;;;6.10;58.10;;;;;;10045848;29;20212;-77
2022/03/26 19:56:25;;;;;;;136.40;51.00;;;6.10;65.50;;;;;;10044097;29;20288;-78
2022/03/26 20:02:00;;;;;;;108.37;45.30;;;;;;;;;;10044632;29;20237;-76
2022/03/26 20:07:21;;;;;;;144.10;67.50;;;5.80;62.30;;;;;;10052980;29;20212;-78
2022/03/26 20:12:43;;;;;;;101.67;46.43;;;5.70;67.40;;;;;;10063924;29;20221;-76
2022/03/26 20:23:45;;;;;;;56.67;27.23;;;5.50;70.00;;;;;;10115276;29;20257;-76
2022/03/26 20:29:09;;;;;;;44.53;21.73;;;5.40;71.70;;;;;;10081359;29;20276;-76
2022/03/26 20:34:31;;;;;;;35.30;17.87;;;5.30;74.40;;;;;;10065473;29;20275;-77
2022/03/26 20:39:53;;;;;;;39.73;18.07;;;;;;;;;;10067401;29;20245;-82
2022/03/26 20:45:15;;;;;;;40.63;18.40;;;5.30;76.40;;;;;;10043587;29;20213;-77
2022/03/26 20:50:37;;;;;;;38.73;17.00;;;5.30;78.60;;;;;;10017184;29;20257;-77
2022/03/26 20:55:59;;;;;;;32.13;14.63;;;5.20;78.70;;;;;;10042973;29;20214;-78
2022/03/26 21:01:21;;;;;;;46.00;23.33;;;5.10;82.70;;;;;;10042956;29;20232;-82
2022/03/26 21:06:44;;;;;;;64.17;32.50;;;5.00;85.30;;;;;;10030104;29;20217;-78
2022/03/26 21:12:06;;;;;;;65.30;30.60;;;4.80;87.20;;;;;;10043006;29;20237;-76
2022/03/26 21:17:28;;;;;;;63.27;28.33;;;4.60;91.50;;;;;;10026376;29;20564;-77
2022/03/26 21:22:51;;;;;;;85.07;36.83;;;4.40;93.60;;;;;;10080556;29;20292;-76
2022/03/26 21:28:14;;;;;;;79.73;37.33;;;4.40;92.90;;;;;;10056414;29;20265;-81
2022/03/26 21:33:36;;;;;;;80.20;38.20;;;4.30;93.60;;;;;;10075836;29;20212;-77
2022/03/26 21:38:58;;;;;;;74.83;38.53;;;4.30;95.00;;;;;;10070430;29;20247;-83
2022/03/26 21:44:26;;;;;;;84.00;39.13;;;4.10;95.80;;;;;;10064636;29;20508;-76
2022/03/26 21:49:48;;;;;;;96.73;46.20;;;4.00;96.40;;;;;;10047819;29;20224;-76
2022/03/26 21:55:13;;;;;;;93.13;46.93;;;4.00;96.90;;;;;;10046956;29;20215;-78
2022/03/26 22:00:40;;;;;;;86.40;45.53;;;4.00;96.80;;;;;;10046055;29;20623;-78
2022/03/26 22:06:03;;;;;;;104.00;55.70;;;3.80;96.90;;;;;;10031099;29;20213;-78
2022/03/26 22:11:26;;;;;;;105.43;56.23;;;3.70;97.30;;;;;;10036829;29;20222;-76
2022/03/26 22:16:49;;;;;;;98.83;53.37;;;3.70;97.80;;;;;;10030888;29;20287;-81
2022/03/26 22:22:12;;;;;;;88.43;46.87;;;3.50;98.00;;;;;;10030549;29;20545;-79
2022/03/26 22:27:35;;;;;;;89.43;47.50;;;3.40;99.00;;;;;;10121044;29;20210;-79
2022/03/26 22:32:57;;;;;;;80.07;43.73;;;3.40;99.50;;;;;;10103955;29;20241;-78
2022/03/26 22:38:20;;;;;;;78.13;39.90;;;3.30;99.90;;;;;;10092249;29;20234;-80
2022/03/26 22:43:42;;;;;;;78.10;37.27;;;3.20;99.90;;;;;;10087129;29;20213;-80
2022/03/26 22:49:04;;;;;;;70.63;33.50;;;3.10;99.90;;;;;;10085881;29;20211;-81
2022/03/26 22:54:26;;;;;;;66.70;32.83;;;3.00;99.90;;;;;;10091685;29;20507;-81
2022/03/26 22:59:51;;;;;;;62.23;30.10;;;3.10;99.90;;;;;;10091887;29;20544;-78
2022/03/26 23:05:12;;;;;;;55.77;29.37;;;3.10;99.90;;;;;;10090065;29;20210;-76
2022/03/26 23:10:34;;;;;;;56.83;28.13;;;3.00;99.90;;;;;;10085909;29;20222;-78
2022/03/26 23:15:56;;;;;;;51.33;27.07;;;3.00;99.90;;;;;;10091863;29;20210;-81
2022/03/26 23:21:18;;;;;;;51.70;28.67;;;3.00;99.90;;;;;;10102666;29;20638;-75
2022/03/26 23:26:40;;;;;;;47.30;23.13;;;3.00;99.90;;;;;;10087092;29;20218;-80
2022/03/26 23:32:03;;;;;;;62.60;23.43;;;2.90;99.90;;;;;;10086215;29;20261;-81
2022/03/26 23:37:25;;;;;;;64.50;26.73;;;2.70;99.90;;;;;;10079278;29;20223;-77
2022/03/26 23:42:47;;;;;;;60.70;27.50;;;;;;;;;;10046046;29;20256;-76
2022/03/26 23:48:09;;;;;;;67.93;29.20;;;2.50;99.90;;;;;;10045804;29;20255;-77
2022/03/26 23:53:31;;;;;;;66.70;29.00;;;2.50;99.90;;;;;;10046157;29;20291;-78
2022/03/26 23:58:53;;;;;;;62.07;28.13;;;2.50;99.90;;;;;;10049855;29;20257;-76
